AirNav   ProFlight Series 2 Aviation Headset
 
 674 users online  

CT95 Meriden-Wallingford Hospital Heliport
Meriden, Connecticut, USA

GOING TO MERIDEN?


FAA INFORMATION EFFECTIVE 18 JUNE 2020

Location

FAA Identifier: CT95
Lat/Long: 41-31-59.9900N 072-48-34.3100W
41-31.999833N 072-48.571833W
41.5333306,-72.8095306
(estimated)
Elevation: 145 ft. / 44 m (estimated)
Variation: 14W (1985)
From city: 1 mile W of MERIDEN, CT
Time zone: UTC -4 (UTC -5 during Standard Time)
Zip code: 06451

Heliport Operations

Heliport use: Private use, MEDICAL USE.
Activation date: 02/1987
Control tower: no
ARTCC: BOSTON CENTER
FSS: BRIDGEPORT FLIGHT SERVICE STATION
Attendance: UNATNDD
Segmented circle: no

Heliport Communications

WX ASOS at MMK (1.7 nm SW): 134.925 (203-639-9405)
WX AWOS-AV at CT71 (11 nm N): 129.825
WX ASOS at HFD (14 nm NE): PHONE 860-527-5837
WX AWOS-3PT at OXC (15 nm W): 132.975 (203-262-1190)
WX AWOS-3 at SNC (16 nm SE): 118.325 (860-526-1551)
WX ASOS at HVN (17 nm S): PHONE 203-466-6205

Nearby radio navigation aids

VOR radial/distance  VOR name  Freq  Var
HFDr254/13.4HARTFORD VOR/DME114.9013W
MADr351/14.2MADISON VOR/DME110.4013W
BDRr044/26.5BRIDGEPORT VOR/DME108.8012W
GONr304/36.2GROTON VOR/DME110.8514W
CCCr012/36.2CALVERTON VOR/DME117.2013W
ORWr282/36.4NORWICH VOR/DME110.0014W
CMKr078/37.9CARMEL VOR/DME116.6012W
BAFr200/37.9BARNES VORTAC113.0014W
PWLr124/38.2PAWLING VOR/DME114.3012W

Heliport Services

Runway Information

Helipad H1

Dimensions: 30 x 30 ft. / 9 x 9 m
Surface: concrete
Latitude: 41-31.999833N
Longitude: 072-48.571833W
Traffic pattern: leftleft

Heliport Ownership and Management from official FAA records

Ownership: Privately-owned
Owner: MIDSTATE MEDICAL CENTER
435 LEWIS AVE
MERIDEN, CT 06451-1009
Phone 203-238-8209
Manager: DONALD SIMONIDES
435 LEWIS AVE
MERIDEN, CT 06451-1009
Phone 203-694-8219

Additional Remarks

FOR CD CTC YANKEE APCH AT 860-386-3597

Instrument Procedures

There are no published instrument procedures at CT95.

Some nearby airports with instrument procedures:

KMMK - Meriden Markham Municipal Airport (2 nm SW)
4B8 - Robertson Field Airport (10 nm N)
KHFD - Hartford-Brainard Airport (14 nm NE)
KOXC - Waterbury-Oxford Airport (15 nm W)
KSNC - Chester Airport (16 nm SE)
KHVN - Tweed-New Haven Airport (17 nm S)
 
Loc | Ops | Rwys | IFR | FBO | Links
Com | Nav | Svcs | Stats | Notes

Silver City Flying Club
 
Area around CT95 (Meriden-Wallingford Hospital Heliport)
 
Road maps at: MapQuest Bing Google
 
Aerial photo
No photo
 
Sectional chart

 
Airport distance calculator
Flying to Meriden-Wallingford Hospital Heliport? Find the distance to fly.

From to CT95

Sunrise and sunset
Times for 11-Jul-2020
 Local
(UTC-4)
 Zulu
(UTC)
Morning civil twilight04:5608:56
Sunrise05:2909:29
Sunset20:2500:25
Evening civil twilight20:5800:58

Current date and time
Zulu (UTC)  11-Jul-2020 12:50:44
Local (UTC-4)  11-Jul-2020 08:50:44
 
METAR
KMMK 111153Z AUTO 18009KT 10SM FEW013 24/21 A2973 RMK AO2 SLP065 60007 70019 T02440206 10244 20222 52014
KHFD 
14nm NE 
111153Z 18010G16KT 10SM FEW018 26/22 A2971 RMK AO2 SLP061 60001 70020 T02560217 10256 20233 53015
KOXC 
14nm W 
111151Z VRB05KT 10SM SCT008 23/22 A2975 RMK AO2 SLP082 6//// 7//// T02330217 10233 20217 51011 PNO $
KHVN 
16nm S 
111153Z 18010KT 10SM FEW008 FEW150 25/23 A2973 RMK AO2 SLP068 60000 70014 T02500228 10250 20233 52013
KSNC 
16nm SE 
111155Z AUTO 19008G13KT 3SM BR OVC002 23/23 A2976 RMK AO2
TAF
KBDL 
25nm N 
111125Z 1112/1218 19013G21KT P6SM SCT015 BKN035 FM111300 19013G20KT P6SM BKN040 FM111900 18012G25KT P6SM BKN050 FM120200 19009KT P6SM BKN015 FM121200 23006KT P6SM FEW050
KBDR 
26nm SW 
111131Z 1112/1212 20010KT P6SM FEW015 FEW120 FM111400 19011KT P6SM SCT025 SCT120 FM111800 19013G21KT P6SM SCT035 FM112300 21010KT P6SM SCT040 FM120600 24006KT P6SM FEW030 SCT040
NOTAMs
Click for the latest NOTAMs
NOTAMs are issued by the DoD/FAA and will open in a separate window not controlled by AirNav.

 

 
 

Would you like to see your business listed on this page?

 If your business provides an interesting product or service to pilots, flight crews, aircraft, or users of the Meriden-Wallingford Hospital Heliport, you should consider listing it here.  To start the listing process, click on the button below
 
Add a business
 

Other Pages about Meriden-Wallingford Hospital Heliport

Update a link
 
Copyright © AirNav, LLC. All rights reserved. Privacy Policy  Contact